Time;durP1;ratioP1;P1;durP2;ratioP2;P2;SDS_P1;SDS_P2;PMS_P1;PMS_P2;Temp;Humidity;BMP_temperature;BMP_pressure;BME280_temperature;BME280_humidity;BME280_pressure;Samples;Min_cycle;Max_cycle;Signal;HPM_P1;HPM_P2
2022/03/24 00:02:10;;;;;;;26.10;13.77;;;5.10;70.80;;;;;;6309494;22;20000;-66
2022/03/24 00:04:36;;;;;;;37.78;15.00;;;5.10;70.30;;;;;;6310820;22;20030;-66
2022/03/24 00:07:02;;;;;;;22.95;14.80;;;5.30;69.70;;;;;;6310914;22;20034;-66
2022/03/24 00:09:28;;;;;;;20.90;13.50;;;5.30;69.80;;;;;;6311392;22;19999;-66
2022/03/24 00:11:55;;;;;;;21.88;13.65;;;5.20;70.40;;;;;;6308887;22;20648;-66
2022/03/24 00:14:23;;;;;;;23.48;14.20;;;5.20;69.70;;;;;;6310929;22;20375;-66
2022/03/24 00:16:49;;;;;;;19.73;13.45;;;5.20;69.70;;;;;;6311003;22;20060;-66
2022/03/24 00:19:17;;;;;;;24.13;13.18;;;5.20;69.30;;;;;;6311230;22;20010;-66
2022/03/24 00:21:44;;;;;;;26.20;14.05;;;5.20;69.60;;;;;;6310708;22;20368;-66
2022/03/24 00:24:09;;;;;;;20.67;13.07;;;5.30;69.80;;;;;;6310684;22;19995;-66
2022/03/24 00:26:35;;;;;;;23.85;13.48;;;5.20;70.30;;;;;;6282997;22;20038;-66
2022/03/24 00:29:02;;;;;;;21.92;14.10;;;5.20;70.50;;;;;;6310142;22;20003;-66
2022/03/24 00:31:28;;;;;;;25.50;14.40;;;5.10;70.70;;;;;;6309866;22;20006;-66
2022/03/24 00:33:55;;;;;;;22.42;14.38;;;5.10;70.30;;;;;;6310993;22;19999;-66
2022/03/24 00:36:21;;;;;;;21.67;13.45;;;5.10;70.30;;;;;;6310963;22;20007;-66
2022/03/24 00:38:52;;;;;;;25.50;14.15;;;5.00;70.60;;;;;;6310755;22;19996;-67
2022/03/24 00:41:17;;;;;;;21.70;14.30;;;5.00;70.10;;;;;;6311471;22;20431;-66
2022/03/24 00:43:44;;;;;;;20.67;13.60;;;5.20;69.20;;;;;;6309318;22;20003;-66
2022/03/24 00:46:09;;;;;;;24.52;14.13;;;5.30;69.00;;;;;;6311049;22;20003;-66
2022/03/24 00:48:35;;;;;;;21.40;13.98;;;5.30;68.80;;;;;;6310687;22;20074;-67
2022/03/24 00:51:01;;;;;;;21.67;13.80;;;5.30;69.00;;;;;;6310551;22;20011;-66
2022/03/24 00:53:29;;;;;;;22.27;12.90;;;5.20;69.60;;;;;;6310441;22;20003;-67
2022/03/24 00:55:56;;;;;;;21.80;14.10;;;5.10;70.20;;;;;;6310498;22;20010;-66
2022/03/24 00:58:22;;;;;;;22.25;14.05;;;5.10;69.00;;;;;;6309411;22;19995;-66
2022/03/24 01:00:50;;;;;;;21.77;13.80;;;5.50;67.60;;;;;;6310179;22;20003;-66
2022/03/24 01:03:16;;;;;;;20.70;13.20;;;5.50;68.20;;;;;;6311046;22;20003;-66
2022/03/24 01:05:42;;;;;;;23.02;14.25;;;5.40;68.70;;;;;;6310700;22;20430;-66
2022/03/24 01:08:08;;;;;;;25.17;13.98;;;5.40;67.30;;;;;;6310141;22;20015;-67
2022/03/24 01:10:38;;;;;;;24.98;14.55;;;5.40;67.70;;;;;;6311117;22;20269;-66
2022/03/24 01:13:03;;;;;;;22.88;14.50;;;5.30;68.30;;;;;;6308445;22;20000;-66
2022/03/24 01:15:30;;;;;;;22.83;14.48;;;5.20;68.40;;;;;;6310735;22;19999;-66
2022/03/24 01:17:59;;;;;;;24.67;14.60;;;5.30;68.40;;;;;;6310117;22;20019;-66
2022/03/24 01:20:24;;;;;;;22.08;14.43;;;5.10;69.20;;;;;;6310448;22;19995;-66
2022/03/24 01:22:50;;;;;;;22.55;12.95;;;4.90;70.10;;;;;;6310854;22;20049;-67
2022/03/24 01:25:16;;;;;;;21.52;13.77;;;4.80;70.30;;;;;;6310398;22;20003;-67
2022/03/24 01:27:42;;;;;;;23.77;14.13;;;4.70;71.00;;;;;;6308656;22;20312;-66
2022/03/24 01:30:09;;;;;;;22.85;14.82;;;4.70;70.40;;;;;;6309999;22;19999;-67
2022/03/24 01:32:35;;;;;;;21.58;14.70;;;4.70;70.80;;;;;;6310198;22;20056;-66
2022/03/24 01:35:03;;;;;;;23.38;14.32;;;4.70;71.20;;;;;;6310735;22;20324;-66
2022/03/24 01:37:28;;;;;;;23.25;14.90;;;4.50;71.80;;;;;;6310320;22;19996;-67
2022/03/24 01:39:57;;;;;;;23.90;14.45;;;4.50;72.30;;;;;;6309994;22;19999;-66
2022/03/24 01:42:22;;;;;;;22.20;14.55;;;4.40;72.50;;;;;;6308116;22;20003;-66
2022/03/24 01:44:48;;;;;;;25.17;15.40;;;4.20;73.30;;;;;;6309933;22;20113;-66
2022/03/24 01:47:18;;;;;;;25.30;15.15;;;4.10;73.60;;;;;;6310061;22;20006;-66
2022/03/24 01:49:47;;;;;;;24.05;14.15;;;4.10;74.70;;;;;;6310044;22;20003;-66
2022/03/24 01:52:14;;;;;;;21.98;13.95;;;3.90;75.70;;;;;;6309670;22;20004;-66
2022/03/24 01:54:45;;;;;;;23.85;14.55;;;3.80;76.10;;;;;;6309375;22;20197;-67
2022/03/24 01:57:12;;;;;;;24.80;14.73;;;3.70;76.20;;;;;;6308642;22;20003;-66
2022/03/24 01:59:40;;;;;;;24.10;14.48;;;3.70;76.70;;;;;;6309028;22;20384;-65
2022/03/24 02:02:10;;;;;;;23.40;14.73;;;3.50;77.70;;;;;;6310346;22;20007;-66
2022/03/24 02:04:36;;;;;;;24.90;14.85;;;3.30;78.60;;;;;;6309322;22;20003;-66
2022/03/24 02:07:06;;;;;;;26.52;14.75;;;3.10;79.00;;;;;;6310041;22;20702;-66
2022/03/24 02:09:33;;;;;;;23.00;14.93;;;3.10;79.50;;;;;;6310109;22;20074;-65
2022/03/24 02:12:00;;;;;;;25.92;15.80;;;3.20;79.40;;;;;;6308823;22;20446;-66
2022/03/24 02:14:29;;;;;;;25.25;15.63;;;3.30;78.30;;;;;;6309902;22;20030;-67
2022/03/24 02:16:55;;;;;;;27.65;15.30;;;3.30;77.80;;;;;;6310255;22;20369;-66
2022/03/24 02:19:24;;;;;;;24.08;15.30;;;3.40;78.00;;;;;;6310571;22;20015;-66
2022/03/24 02:21:53;;;;;;;27.10;16.02;;;3.20;79.30;;;;;;6309960;22;19999;-65
2022/03/24 02:24:21;;;;;;;25.38;15.52;;;3.10;79.60;;;;;;6309845;22;20011;-65
2022/03/24 02:26:47;;;;;;;28.30;16.05;;;3.10;80.00;;;;;;6308814;22;20014;-65
2022/03/24 02:29:15;;;;;;;29.25;17.10;;;3.00;80.20;;;;;;6309761;22;20307;-65
2022/03/24 02:31:44;;;;;;;27.27;16.00;;;3.00;80.90;;;;;;6310303;22;20380;-65
2022/03/24 02:36:57;;;;;;;26.90;16.02;;;3.10;80.00;;;;;;6310451;22;20082;-66
2022/03/24 02:39:24;;;;;;;28.00;16.52;;;3.50;78.50;;;;;;6282750;22;20009;-66
2022/03/24 02:41:57;;;;;;;24.90;15.93;;;3.70;77.80;;;;;;6308431;22;20049;-66
2022/03/24 02:44:27;;;;;;;29.45;16.77;;;3.80;77.50;;;;;;6309925;22;20417;-66
2022/03/24 02:46:57;;;;;;;31.55;16.42;;;3.70;77.70;;;;;;6309431;22;20004;-66
2022/03/24 02:49:26;;;;;;;31.70;15.80;;;3.60;78.20;;;;;;6309480;22;19999;-66
2022/03/24 02:51:53;;;;;;;25.40;15.95;;;3.40;79.00;;;;;;6309986;22;20404;-66
2022/03/24 02:54:19;;;;;;;26.67;15.48;;;3.30;79.30;;;;;;6282415;22;20090;-65
2022/03/24 02:56:45;;;;;;;27.08;15.95;;;3.30;80.00;;;;;;6309537;22;19999;-66
2022/03/24 02:59:12;;;;;;;26.65;16.25;;;3.30;79.80;;;;;;6311701;22;20361;-66
2022/03/24 03:01:42;;;;;;;27.23;16.02;;;3.50;79.20;;;;;;6311400;22;20275;-66
2022/03/24 03:04:09;;;;;;;26.15;16.10;;;3.50;79.10;;;;;;6311395;22;20010;-66
2022/03/24 03:06:36;;;;;;;25.88;15.13;;;3.60;78.70;;;;;;6311835;22;20353;-66
2022/03/24 03:09:02;;;;;;;27.13;17.10;;;3.50;78.20;;;;;;6311949;22;20014;-65
2022/03/24 03:11:31;;;;;;;26.17;16.20;;;3.40;79.50;;;;;;6311919;22;20433;-65
2022/03/24 03:13:58;;;;;;;24.77;15.05;;;3.10;80.60;;;;;;6310240;22;20106;-66
2022/03/24 03:16:25;;;;;;;27.63;15.95;;;2.90;81.20;;;;;;6311200;22;20300;-66
2022/03/24 03:18:51;;;;;;;26.45;15.93;;;2.60;82.00;;;;;;6311945;22;20076;-66
2022/03/24 03:21:17;;;;;;;24.35;14.88;;;2.60;82.80;;;;;;6311934;22;19999;-66
2022/03/24 03:23:43;;;;;;;26.60;16.40;;;2.60;82.90;;;;;;6311492;22;19995;-65
2022/03/24 03:26:11;;;;;;;28.17;15.40;;;2.60;82.50;;;;;;6312176;22;19995;-66
2022/03/24 03:28:38;;;;;;;33.13;15.93;;;2.60;82.30;;;;;;6309734;22;20074;-66
2022/03/24 03:31:05;;;;;;;27.05;16.52;;;2.50;82.90;;;;;;6311389;22;19995;-66
2022/03/24 03:33:34;;;;;;;26.98;16.42;;;2.60;83.00;;;;;;6311446;22;20265;-66
2022/03/24 03:36:00;;;;;;;26.05;14.80;;;2.60;82.90;;;;;;6311436;22;20006;-66
2022/03/24 03:38:26;;;;;;;26.98;15.90;;;2.60;83.00;;;;;;6311517;22;19999;-66
2022/03/24 03:40:53;;;;;;;24.95;15.38;;;2.70;82.20;;;;;;6311611;22;20303;-65
2022/03/24 03:43:20;;;;;;;28.10;16.42;;;2.80;81.70;;;;;;6310396;22;20261;-66
2022/03/24 03:45:46;;;;;;;29.48;16.42;;;2.90;81.50;;;;;;6311017;22;20031;-66
2022/03/24 03:48:12;;;;;;;28.73;16.63;;;2.90;80.90;;;;;;6311150;22;20104;-65
2022/03/24 03:50:41;;;;;;;26.98;17.25;;;3.00;80.60;;;;;;6311479;22;20023;-65
2022/03/24 03:53:08;;;;;;;29.27;16.27;;;3.10;80.30;;;;;;6311218;22;20458;-66
2022/03/24 03:55:36;;;;;;;27.48;16.27;;;3.20;79.90;;;;;;6311194;22;20026;-66
2022/03/24 03:58:06;;;;;;;27.45;16.27;;;3.10;80.10;;;;;;6282575;22;20007;-66
2022/03/24 04:03:17;;;;;;;28.05;17.95;;;3.00;80.60;;;;;;6310854;22;20006;-66
2022/03/24 04:05:43;;;;;;;32.25;17.05;;;2.90;81.10;;;;;;6311067;22;19999;-67
2022/03/24 04:08:10;;;;;;;27.63;16.35;;;2.80;81.70;;;;;;6309616;22;20023;-65
2022/03/24 04:10:37;;;;;;;27.33;16.73;;;2.70;82.20;;;;;;6311780;22;20014;-66
2022/03/24 04:13:06;;;;;;;24.90;15.75;;;2.60;82.50;;;;;;6309394;22;20003;-66
2022/03/24 04:15:33;;;;;;;26.67;17.15;;;2.60;82.60;;;;;;6310414;22;20025;-66
2022/03/24 04:18:02;;;;;;;27.08;16.85;;;2.40;82.90;;;;;;6311296;22;20006;-66
2022/03/24 04:20:29;;;;;;;27.67;16.27;;;2.30;83.90;;;;;;6311028;22;20006;-65
2022/03/24 04:22:59;;;;;;;30.35;16.95;;;2.20;84.30;;;;;;6311263;22;20022;-65
2022/03/24 04:25:26;;;;;;;27.70;15.98;;;2.20;84.00;;;;;;6310607;22;20023;-66
2022/03/24 04:27:52;;;;;;;26.30;15.52;;;2.30;83.80;;;;;;6309688;22;20003;-66
2022/03/24 04:30:18;;;;;;;28.60;17.05;;;2.20;83.80;;;;;;6310631;22;20003;-66
2022/03/24 04:32:47;;;;;;;25.92;15.48;;;2.10;84.30;;;;;;6311073;22;20000;-66
2022/03/24 04:35:13;;;;;;;26.85;16.50;;;2.10;84.90;;;;;;6283288;22;20268;-66
2022/03/24 04:37:43;;;;;;;30.20;17.05;;;2.00;84.90;;;;;;6310912;22;19995;-67
2022/03/24 04:40:13;;;;;;;33.30;17.45;;;1.80;85.50;;;;;;6310926;22;20361;-66
2022/03/24 04:42:42;;;;;;;27.25;16.70;;;1.60;86.30;;;;;;6309387;22;20030;-65
2022/03/24 04:45:09;;;;;;;28.20;16.27;;;1.60;86.70;;;;;;6311018;22;20094;-64
2022/03/24 04:47:35;;;;;;;27.50;16.65;;;1.50;87.10;;;;;;6310683;22;20000;-66
2022/03/24 04:50:02;;;;;;;27.50;15.88;;;1.40;87.40;;;;;;6310350;22;20023;-66
2022/03/24 04:52:27;;;;;;;29.90;16.27;;;1.40;87.10;;;;;;6284221;22;20460;-66
2022/03/24 04:54:54;;;;;;;25.48;14.65;;;1.50;87.10;;;;;;6310787;22;20035;-66
2022/03/24 04:57:22;;;;;;;28.17;16.10;;;1.70;86.30;;;;;;6309259;22;20357;-66
2022/03/24 04:59:48;;;;;;;27.13;17.13;;;1.90;85.50;;;;;;6310485;22;20302;-66
2022/03/24 05:02:15;;;;;;;30.08;17.52;;;2.10;84.80;;;;;;6309985;22;20030;-66
2022/03/24 05:04:42;;;;;;;28.75;17.13;;;2.20;84.40;;;;;;6310411;22;19999;-66
2022/03/24 05:07:09;;;;;;;33.42;17.70;;;2.10;84.30;;;;;;6283377;22;20377;-66
2022/03/24 05:09:35;;;;;;;29.38;15.95;;;2.10;84.50;;;;;;6310494;22;20069;-65
2022/03/24 05:12:01;;;;;;;27.38;15.88;;;2.20;84.20;;;;;;6308815;22;19999;-65
2022/03/24 05:14:26;;;;;;;30.48;15.98;;;2.40;83.50;;;;;;6310387;22;20003;-66
2022/03/24 05:16:52;;;;;;;28.10;16.52;;;2.40;83.00;;;;;;6309568;22;19999;-64
2022/03/24 05:19:19;;;;;;;28.10;16.33;;;2.40;82.90;;;;;;6282945;22;20004;-65
2022/03/24 05:21:45;;;;;;;52.67;37.35;;;2.30;83.10;;;;;;6310786;22;20006;-65
2022/03/24 05:24:11;;;;;;;29.10;17.88;;;2.30;83.40;;;;;;6310461;22;19999;-65
2022/03/24 05:26:38;;;;;;;29.40;16.13;;;2.30;83.10;;;;;;6310074;22;20014;-65
2022/03/24 05:29:04;;;;;;;28.02;16.63;;;2.50;82.80;;;;;;6309193;22;20046;-67
2022/03/24 05:31:30;;;;;;;27.95;16.42;;;2.70;82.40;;;;;;6282716;22;20086;-65
2022/03/24 05:33:55;;;;;;;30.90;16.85;;;2.60;82.50;;;;;;6309378;22;20037;-66
2022/03/24 05:36:21;;;;;;;28.92;16.90;;;2.60;82.50;;;;;;6309439;22;20049;-66
2022/03/24 05:38:46;;;;;;;26.10;15.20;;;2.60;82.60;;;;;;6310704;22;20006;-67
2022/03/24 05:41:13;;;;;;;30.48;16.70;;;2.50;82.90;;;;;;6309920;22;20349;-65
2022/03/24 05:43:40;;;;;;;27.80;16.20;;;2.60;82.50;;;;;;6308060;22;20412;-66
2022/03/24 05:46:06;;;;;;;27.23;16.38;;;2.70;82.80;;;;;;6310342;22;19996;-66
2022/03/24 05:48:33;;;;;;;30.35;17.67;;;2.90;82.30;;;;;;6309696;22;19999;-66
2022/03/24 05:51:00;;;;;;;31.83;17.88;;;2.90;82.00;;;;;;6282485;22;20006;-66
2022/03/24 05:53:25;;;;;;;30.83;16.30;;;3.00;81.70;;;;;;6309080;22;20277;-66
2022/03/24 05:55:52;;;;;;;29.13;17.20;;;3.10;81.60;;;;;;6309729;22;20000;-65
2022/03/24 05:58:17;;;;;;;29.92;17.65;;;3.10;81.60;;;;;;6308054;22;19999;-65
2022/03/24 06:00:43;;;;;;;30.13;16.42;;;3.20;81.40;;;;;;6309244;22;20422;-66
2022/03/24 06:03:09;;;;;;;30.33;18.13;;;3.30;81.00;;;;;;6309347;22;20256;-67
2022/03/24 06:05:36;;;;;;;27.38;16.42;;;3.40;80.90;;;;;;6309066;22;20009;-66
2022/03/24 06:08:03;;;;;;;27.80;15.43;;;3.50;80.80;;;;;;6309062;22;20018;-66
2022/03/24 06:10:30;;;;;;;26.42;16.10;;;3.50;81.10;;;;;;6309796;22;20003;-66
2022/03/24 06:12:58;;;;;;;28.80;16.70;;;3.50;81.20;;;;;;6306330;22;20056;-65
2022/03/24 06:15:24;;;;;;;27.90;16.70;;;3.60;81.00;;;;;;6310127;22;20378;-65
2022/03/24 06:17:49;;;;;;;27.13;15.93;;;3.70;80.60;;;;;;6310060;22;20067;-66
2022/03/24 06:20:16;;;;;;;28.90;16.73;;;3.90;80.40;;;;;;6310106;22;19991;-66
2022/03/24 06:22:43;;;;;;;29.08;17.85;;;4.00;79.70;;;;;;6283871;22;20375;-67
2022/03/24 06:25:09;;;;;;;27.40;16.40;;;4.30;78.60;;;;;;6310326;22;20003;-66
2022/03/24 06:27:34;;;;;;;26.10;15.68;;;4.40;78.50;;;;;;6309286;22;20268;-66
2022/03/24 06:30:00;;;;;;;27.05;16.58;;;4.60;77.90;;;;;;6311287;22;20379;-66
2022/03/24 06:32:27;;;;;;;27.30;16.88;;;4.80;77.10;;;;;;6312833;22;20003;-66
2022/03/24 06:34:53;;;;;;;26.90;16.63;;;4.90;77.50;;;;;;6312606;22;20004;-66
2022/03/24 06:37:19;;;;;;;28.80;17.55;;;4.90;79.00;;;;;;6312807;22;20085;-66
2022/03/24 06:39:45;;;;;;;28.65;17.48;;;4.90;79.60;;;;;;6313105;22;19995;-66
2022/03/24 06:42:11;;;;;;;32.25;17.42;;;4.90;79.90;;;;;;6311280;22;20050;-66
2022/03/24 06:44:36;;;;;;;30.38;17.73;;;5.10;80.00;;;;;;6285893;22;20003;-66
2022/03/24 06:47:02;;;;;;;28.73;18.90;;;5.30;79.00;;;;;;6312568;22;20000;-66
2022/03/24 06:49:28;;;;;;;30.15;18.10;;;5.50;77.90;;;;;;6312731;22;20311;-66
2022/03/24 06:51:54;;;;;;;29.75;17.33;;;5.60;77.60;;;;;;6312862;22;19999;-67
2022/03/24 06:54:19;;;;;;;28.58;16.70;;;5.80;76.90;;;;;;6312608;22;20007;-66
2022/03/24 06:56:45;;;;;;;27.67;17.20;;;6.10;76.10;;;;;;6311052;22;20027;-66
2022/03/24 06:59:11;;;;;;;27.45;16.90;;;6.30;74.80;;;;;;6312763;22;19996;-66
2022/03/24 07:01:36;;;;;;;25.75;16.48;;;6.50;74.80;;;;;;6312387;22;19995;-66
2022/03/24 07:04:02;;;;;;;27.63;16.75;;;6.70;75.70;;;;;;6312565;22;20010;-66
2022/03/24 07:06:28;;;;;;;25.35;16.27;;;6.90;75.30;;;;;;6312475;22;20080;-66
2022/03/24 07:08:56;;;;;;;26.50;16.50;;;7.10;73.60;;;;;;6312645;22;20540;-66
2022/03/24 07:11:22;;;;;;;24.52;16.15;;;7.30;72.60;;;;;;6312694;22;20000;-66
2022/03/24 07:13:48;;;;;;;26.25;15.38;;;7.50;73.80;;;;;;6310504;22;20065;-66
2022/03/24 07:16:13;;;;;;;22.88;14.05;;;7.60;75.70;;;;;;6311651;22;19991;-66
2022/03/24 07:18:39;;;;;;;26.02;14.45;;;7.70;76.20;;;;;;6312372;22;20007;-67
2022/03/24 07:21:05;;;;;;;25.27;14.75;;;7.80;75.50;;;;;;6312207;22;20003;-66
2022/03/24 07:23:33;;;;;;;21.45;13.90;;;7.90;74.80;;;;;;6312496;22;20011;-66
2022/03/24 07:25:58;;;;;;;25.00;15.00;;;8.10;73.30;;;;;;6312245;22;20003;-66
2022/03/24 07:28:24;;;;;;;24.10;14.90;;;8.40;72.50;;;;;;6310814;22;20124;-66
2022/03/24 07:30:50;;;;;;;23.92;15.38;;;8.50;74.40;;;;;;6312171;22;20007;-66
2022/03/24 07:33:19;;;;;;;23.70;15.32;;;8.60;75.40;;;;;;6312486;22;20074;-66
2022/03/24 07:35:47;;;;;;;24.55;15.48;;;8.60;74.60;;;;;;6284753;22;20141;-67
2022/03/24 07:38:14;;;;;;;26.98;16.58;;;8.80;71.80;;;;;;6312031;22;20379;-66
2022/03/24 07:40:39;;;;;;;30.95;18.02;;;9.00;70.90;;;;;;6311835;22;20008;-66
2022/03/24 07:43:05;;;;;;;34.42;19.17;;;9.20;69.90;;;;;;6311148;22;20261;-66
2022/03/24 07:45:37;;;;;;;32.45;20.50;;;9.30;69.10;;;;;;6311693;22;20421;-66
2022/03/24 07:48:13;;;;;;;34.50;19.98;;;9.40;68.30;;;;;;6312361;22;20003;-66
2022/03/24 07:50:45;;;;;;;30.65;19.70;;;9.70;67.10;;;;;;6312043;22;20082;-67
2022/03/24 07:53:14;;;;;;;29.67;19.63;;;9.80;65.20;;;;;;6312290;22;20034;-67
2022/03/24 07:55:41;;;;;;;28.38;19.17;;;10.00;64.10;;;;;;6312098;22;20014;-66
2022/03/24 07:58:11;;;;;;;34.88;19.85;;;10.10;63.10;;;;;;6310715;22;20075;-66
2022/03/24 08:00:37;;;;;;;30.83;19.67;;;10.20;63.20;;;;;;6312007;22;20091;-66
2022/03/24 08:03:05;;;;;;;30.13;18.92;;;10.30;63.30;;;;;;6312137;22;19999;-66
2022/03/24 08:05:32;;;;;;;33.55;20.38;;;10.40;63.00;;;;;;6311858;22;20070;-66
2022/03/24 08:07:57;;;;;;;31.05;18.98;;;10.60;63.60;;;;;;6311839;22;20012;-66
2022/03/24 08:10:23;;;;;;;29.40;19.33;;;10.80;63.30;;;;;;6284613;22;20014;-66
2022/03/24 08:12:49;;;;;;;29.77;19.90;;;11.00;62.20;;;;;;6310513;22;19999;-65
2022/03/24 08:15:15;;;;;;;28.73;18.25;;;11.10;61.10;;;;;;6312032;22;20042;-65
2022/03/24 08:17:41;;;;;;;31.25;18.63;;;11.20;61.10;;;;;;6311526;22;20073;-65
2022/03/24 08:20:07;;;;;;;30.45;19.77;;;11.40;60.40;;;;;;6312076;22;20003;-66
2022/03/24 08:22:33;;;;;;;30.25;18.00;;;11.70;60.60;;;;;;6311897;22;20011;-67
2022/03/24 08:24:59;;;;;;;29.48;18.50;;;12.10;59.30;;;;;;6311697;22;19999;-66
2022/03/24 08:27:25;;;;;;;27.77;18.05;;;12.80;58.70;;;;;;6310472;22;20011;-67
2022/03/24 08:29:51;;;;;;;31.20;18.42;;;13.90;57.90;;;;;;6311149;22;20066;-67
2022/03/24 08:32:17;;;;;;;28.38;18.85;;;15.30;54.60;;;;;;6311960;22;20422;-67
2022/03/24 08:34:43;;;;;;;29.50;20.73;;;16.40;52.70;;;;;;6312106;22;20014;-67
2022/03/24 08:37:08;;;;;;;26.02;18.80;;;17.10;50.70;;;;;;6311678;22;20325;-67
2022/03/24 08:39:34;;;;;;;26.70;18.63;;;17.40;50.50;;;;;;6311390;22;20308;-66
2022/03/24 08:42:00;;;;;;;26.20;17.23;;;17.50;50.40;;;;;;6309970;22;20000;-67
2022/03/24 08:44:26;;;;;;;22.38;16.58;;;17.60;50.50;;;;;;6311561;22;19999;-67
2022/03/24 08:46:52;;;;;;;23.55;17.02;;;17.80;51.00;;;;;;6311312;22;20082;-66
2022/03/24 08:49:18;;;;;;;25.63;16.30;;;17.90;49.80;;;;;;6311573;22;20321;-66
2022/03/24 08:51:45;;;;;;;23.92;16.13;;;18.10;49.40;;;;;;6311401;22;20072;-66
2022/03/24 08:54:11;;;;;;;26.23;16.83;;;18.40;49.00;;;;;;6310516;22;20010;-66
2022/03/24 08:56:36;;;;;;;22.42;15.27;;;18.20;49.30;;;;;;6311541;22;20387;-67
2022/03/24 08:59:04;;;;;;;28.48;16.88;;;17.90;50.90;;;;;;6309725;22;20027;-67
2022/03/24 09:01:32;;;;;;;23.17;16.73;;;18.00;49.60;;;;;;6311545;22;20007;-66
2022/03/24 09:04:01;;;;;;;24.63;17.50;;;17.80;49.60;;;;;;6311800;22;20308;-67
2022/03/24 09:06:26;;;;;;;25.10;16.33;;;17.60;50.30;;;;;;6311486;22;20003;-66
2022/03/24 09:08:52;;;;;;;25.55;16.95;;;17.90;50.50;;;;;;6311122;22;20051;-66
2022/03/24 09:11:18;;;;;;;25.10;17.10;;;18.20;49.60;;;;;;6311362;22;20003;-66
2022/03/24 09:13:44;;;;;;;27.38;17.63;;;18.10;50.60;;;;;;6309973;22;20388;-66
2022/03/24 09:16:11;;;;;;;25.50;17.20;;;18.30;50.00;;;;;;6311592;22;20000;-67
2022/03/24 09:18:37;;;;;;;24.58;19.23;;;18.10;50.10;;;;;;6311300;22;19995;-66
2022/03/24 09:21:03;;;;;;;26.67;17.80;;;18.10;49.40;;;;;;6311649;22;20082;-67
2022/03/24 09:23:29;;;;;;;26.42;17.45;;;18.40;49.40;;;;;;6310703;22;19999;-67
2022/03/24 09:25:56;;;;;;;24.02;17.23;;;18.30;48.60;;;;;;6311613;22;20014;-66
2022/03/24 09:28:24;;;;;;;30.70;19.25;;;18.40;48.70;;;;;;6310173;22;19999;-67
2022/03/24 09:30:50;;;;;;;33.70;19.90;;;18.20;48.40;;;;;;6311126;22;20011;-67
2022/03/24 09:33:18;;;;;;;26.42;17.95;;;18.10;48.30;;;;;;6311197;22;20074;-66
2022/03/24 09:35:43;;;;;;;25.73;18.13;;;18.30;49.30;;;;;;6310917;22;20028;-66
2022/03/24 09:38:09;;;;;;;27.15;18.98;;;18.60;49.40;;;;;;6310877;22;20306;-67
2022/03/24 09:40:35;;;;;;;31.58;20.40;;;18.90;49.00;;;;;;6284094;22;20073;-67
2022/03/24 09:43:02;;;;;;;27.02;18.75;;;19.30;49.00;;;;;;6309623;22;20009;-66
2022/03/24 09:45:28;;;;;;;25.30;18.65;;;19.30;48.70;;;;;;6311439;22;20003;-66
2022/03/24 09:47:54;;;;;;;27.88;19.35;;;19.10;49.20;;;;;;6311033;22;20009;-66
2022/03/24 09:50:22;;;;;;;24.90;18.63;;;19.20;48.90;;;;;;6310972;22;20078;-67
2022/03/24 09:52:49;;;;;;;27.73;18.10;;;19.60;48.90;;;;;;6310974;22;20219;-67
2022/03/24 09:55:17;;;;;;;30.42;18.23;;;20.20;48.40;;;;;;6311045;22;19999;-67
2022/03/24 09:57:44;;;;;;;27.45;18.38;;;20.20;48.00;;;;;;6309781;22;20265;-66
2022/03/24 10:00:11;;;;;;;28.50;19.30;;;20.00;48.00;;;;;;6311076;22;20078;-66
2022/03/24 10:02:37;;;;;;;28.00;19.02;;;19.50;49.00;;;;;;6310819;22;20033;-66
2022/03/24 10:05:04;;;;;;;27.13;19.30;;;19.40;49.60;;;;;;6310862;22;20007;-66
2022/03/24 10:07:35;;;;;;;31.13;19.08;;;19.40;49.40;;;;;;6310667;22;20023;-67
2022/03/24 10:10:02;;;;;;;27.27;18.83;;;19.80;49.10;;;;;;6310537;22;20030;-66
2022/03/24 10:12:36;;;;;;;27.30;19.17;;;19.60;49.70;;;;;;6309504;22;20367;-66
2022/03/24 10:15:07;;;;;;;25.65;19.00;;;20.10;49.60;;;;;;6310492;22;20306;-67
2022/03/24 10:17:34;;;;;;;26.25;19.75;;;20.40;49.00;;;;;;6310750;22;20023;-66
2022/03/24 10:20:00;;;;;;;34.50;21.48;;;20.40;48.30;;;;;;6310696;22;20025;-67
2022/03/24 10:22:26;;;;;;;29.77;18.55;;;20.40;48.20;;;;;;6310775;22;20003;-66
2022/03/24 10:24:52;;;;;;;28.92;18.27;;;20.40;48.20;;;;;;6311131;22;20007;-66
2022/03/24 10:27:29;;;;;;;27.90;18.05;;;20.40;46.60;;;;;;6309153;22;20008;-66
2022/03/24 10:29:58;;;;;;;23.80;17.13;;;20.30;46.50;;;;;;6310640;22;20003;-66
2022/03/24 10:32:32;;;;;;;25.13;17.95;;;20.00;46.10;;;;;;6310466;22;20003;-66
2022/03/24 10:35:10;;;;;;;27.55;17.83;;;19.90;46.60;;;;;;6310532;22;19999;-67
2022/03/24 10:37:37;;;;;;;27.92;17.23;;;20.10;46.20;;;;;;6310496;22;19999;-66
2022/03/24 10:40:06;;;;;;;28.98;19.60;;;20.50;46.20;;;;;;6310721;22;20003;-67
2022/03/24 10:42:40;;;;;;;25.95;18.25;;;21.00;46.40;;;;;;6308789;22;19995;-67
2022/03/24 10:45:11;;;;;;;;;;;21.30;46.10;;;;;;6311426;22;20037;-67
2022/03/24 10:48:02;;;;;;;23.73;16.95;;;21.20;45.70;;;;;;6310685;22;19906;-67
2022/03/24 10:50:33;;;;;;;24.98;16.17;;;21.50;45.00;;;;;;6310460;22;20010;-67
2022/03/24 10:53:00;;;;;;;24.80;17.73;;;21.80;43.70;;;;;;6310618;22;20160;-66
2022/03/24 10:55:44;;;;;;;25.90;17.35;;;22.00;42.50;;;;;;6310463;22;20003;-66
2022/03/24 10:58:33;;;;;;;23.38;16.85;;;22.00;42.00;;;;;;6309250;22;19999;-67
2022/03/24 11:01:02;;;;;;;22.50;16.65;;;22.00;42.30;;;;;;6310397;22;19995;-66
2022/03/24 11:03:28;;;;;;;22.45;17.17;;;21.60;41.50;;;;;;6310839;22;20222;-67
2022/03/24 11:06:14;;;;;;;25.75;19.13;;;21.30;40.90;;;;;;6310494;22;20138;-66
2022/03/24 11:08:44;;;;;;;24.58;17.98;;;21.30;40.60;;;;;;6310308;22;20348;-66
2022/03/24 11:11:19;;;;;;;22.90;17.48;;;20.80;42.10;;;;;;6310587;22;20038;-66
2022/03/24 11:13:52;;;;;;;23.08;17.27;;;20.90;42.10;;;;;;6309501;22;20006;-66
2022/03/24 11:16:21;;;;;;;26.75;18.25;;;20.60;42.00;;;;;;6311088;22;19995;-68
2022/03/24 11:18:49;;;;;;;24.10;16.65;;;20.70;41.90;;;;;;6312661;22;19999;-68
2022/03/24 11:21:21;;;;;;;24.40;16.35;;;20.80;41.80;;;;;;6312676;22;19996;-67
2022/03/24 11:23:46;;;;;;;24.08;16.38;;;21.00;41.60;;;;;;6312315;22;20000;-67
2022/03/24 11:26:14;;;;;;;23.55;17.90;;;21.10;41.90;;;;;;6312171;22;20421;-68
2022/03/24 11:28:41;;;;;;;25.25;17.08;;;20.50;41.60;;;;;;6311018;22;20268;-67
2022/03/24 11:31:10;;;;;;;24.38;17.30;;;20.50;42.10;;;;;;6312283;22;19995;-67
2022/03/24 11:33:47;;;;;;;24.48;17.85;;;20.70;41.00;;;;;;6312741;22;20003;-66
2022/03/24 11:36:15;;;;;;;25.17;18.20;;;21.20;41.30;;;;;;6312167;22;20074;-67
2022/03/24 11:38:42;;;;;;;23.88;17.25;;;21.30;40.80;;;;;;6312317;22;20000;-67
2022/03/24 11:41:17;;;;;;;28.00;17.05;;;21.30;41.50;;;;;;6312275;22;20049;-66
2022/03/24 11:43:48;;;;;;;22.98;15.93;;;21.40;40.80;;;;;;6310386;22;20261;-66
2022/03/24 11:46:26;;;;;;;21.65;16.48;;;21.10;40.70;;;;;;6312210;22;20010;-66
2022/03/24 11:49:18;;;;;;;24.20;17.70;;;21.50;40.50;;;;;;6312210;22;20000;-67
2022/03/24 11:52:04;;;;;;;22.98;17.75;;;21.00;40.00;;;;;;6312689;22;20000;-66
2022/03/24 11:54:32;;;;;;;24.55;17.73;;;20.50;41.70;;;;;;6290533;22;20314;-66
2022/03/24 11:57:19;;;;;;;22.88;17.17;;;20.60;41.60;;;;;;6310388;22;20357;-67
2022/03/24 11:59:49;;;;;;;22.90;16.52;;;21.10;41.40;;;;;;6312013;22;20000;-66
2022/03/24 12:02:19;;;;;;;22.00;17.00;;;21.30;40.80;;;;;;6312233;22;19999;-67
2022/03/24 12:04:56;;;;;;;25.17;17.35;;;21.60;40.60;;;;;;6311738;22;20370;-67
2022/03/24 12:07:24;;;;;;;23.88;17.77;;;21.90;40.70;;;;;;6311979;22;20019;-65
2022/03/24 12:10:07;;;;;;;23.95;17.08;;;21.70;40.50;;;;;;6312235;22;20014;-66
2022/03/24 12:12:32;;;;;;;24.05;16.85;;;22.00;40.60;;;;;;6310547;22;20003;-67
2022/03/24 12:15:15;;;;;;;24.30;19.20;;;21.90;40.00;;;;;;6311728;22;20007;-67
2022/03/24 12:18:03;;;;;;;20.98;16.45;;;21.80;40.90;;;;;;6311924;22;19992;-66
2022/03/24 12:20:42;;;;;;;22.50;16.85;;;21.80;39.60;;;;;;6312093;22;20062;-66
2022/03/24 12:23:08;;;;;;;21.40;16.30;;;21.50;40.10;;;;;;6311686;22;20006;-66
2022/03/24 12:25:35;;;;;;;20.40;16.35;;;21.40;40.50;;;;;;6311684;22;20078;-67
2022/03/24 12:28:09;;;;;;;23.67;16.45;;;21.20;40.30;;;;;;6310067;22;20032;-67
2022/03/24 12:30:45;;;;;;;20.15;15.40;;;21.40;40.00;;;;;;6311752;22;20003;-67
2022/03/24 12:33:14;;;;;;;21.25;16.38;;;21.40;39.60;;;;;;6284464;22;20417;-66
2022/03/24 12:35:49;;;;;;;21.35;15.73;;;21.10;40.00;;;;;;6311400;22;20007;-66
2022/03/24 12:38:34;;;;;;;22.70;14.82;;;20.70;40.90;;;;;;6312181;22;19995;-68
2022/03/24 12:41:02;;;;;;;21.35;15.75;;;20.60;39.90;;;;;;6311472;22;19999;-67
2022/03/24 12:43:29;;;;;;;24.02;17.15;;;20.50;40.50;;;;;;6310568;22;19995;-67